La Gomera > ESTACION METEOROLÓGICA El Cedro - Hermigua

DATOS ACTUALES Online

Ultima actulizacion 13 minutos

17.4 ºC

Temperatura

100

Humedad (%)

Presión (mb)

0.8

Precipitación (mm)

3.1 S

Viento (Km/h)

DATOS DIARIOS

Temperatura últimas 24 horas (ºC)

Humedad últimas 24 horas (%)

Presión atmosférica últimas 24 horas (mb)

Precipitaciones últimas 23 horas (mm)

Viento últimas 24 horas (Km/h)

Hora Temperatura (°C) ºC Precipitación (mm) mm Presión (mb) mb Humedad (%) % Viento (Km/h) km/h
25 - 00:00 15.3 0 0 91 6.4 S
25 - 01:00 15.7 0 0 83 9.5 SW
25 - 02:00 15.5 0 0 91 4.5 SW
25 - 03:00 15.3 0 0 93 4.1 SW
25 - 04:00 15.1 0.1 0 98 4.7 S
25 - 05:00 14.8 0.2 0 99 5.2 S
25 - 06:00 15.2 2 0 100 6.3 S
25 - 07:00 15.6 3.5 0 100 4.1 S
25 - 08:00 16.6 4.1 0 100 3 S
25 - 09:00 16.9 5.4 0 100 3.5 O
25 - 10:00 17.3 7.2 0 100 2 S
25 - 11:00 16.7 8.6 0 100 3.2 NO
25 - 12:00 17.5 10.6 0 100 2.1 SO
25 - 13:00 18.4 11.7 0 100 4.8 O
25 - 14:00 18.3 12.5 0 100 2.8 NW
25 - 15:00 18.2 13.4 0 100 4.3 N
25 - 16:00 18.3 14.1 0 100 2.7 NO
25 - 17:00 18.1 15.3 0 100 2.3 N
25 - 18:00 18 17.5 0 100 1.4 NO
25 - 19:00 17.8 18.9 0 100 2.1 N
25 - 20:00 17.7 19.6 0 100 5.7 SW
25 - 21:00 17.6 20.2 0 100 4.3 S
25 - 22:00 17.4 20.7 0 100 3 S
25 - 23:00 17.4 0 0 100 2.7 S
26 - 00:00 17.4 0.8 0 100 3.1 S
Apalmet utiliza cookies propias y de terceros para mejorar la usabilidad y la experiencia web. Política de cookies.